sensor_id;sensor_type;location;lat;lon;timestamp;pressure;altitude;pressure_sealevel;temperature;humidity
13033;BME280;6583;42.632;23.298;2023-09-19T00:00:19;70198.66;;;-146.40;69.83
13033;BME280;6583;42.632;23.298;2023-09-19T00:02:53;70186.50;;;-146.40;71.17
13033;BME280;6583;42.632;23.298;2023-09-19T00:05:20;70166.28;;;-146.40;70.94
13033;BME280;6583;42.632;23.298;2023-09-19T00:07:50;70154.16;;;-146.40;70.15
13033;BME280;6583;42.632;23.298;2023-09-19T00:10:19;70162.25;;;-146.40;68.45
13033;BME280;6583;42.632;23.298;2023-09-19T00:12:45;70150.09;;;-146.40;68.49
13033;BME280;6583;42.632;23.298;2023-09-19T00:15:12;70142.00;;;-146.40;68.02
13033;BME280;6583;42.632;23.298;2023-09-19T00:17:43;70154.16;;;-146.40;67.44
13033;BME280;6583;42.632;23.298;2023-09-19T00:20:11;70154.16;;;-146.40;68.42
13033;BME280;6583;42.632;23.298;2023-09-19T00:22:40;70158.19;;;-146.40;67.69
13033;BME280;6583;42.632;23.298;2023-09-19T00:25:08;70162.25;;;-146.40;68.77
13033;BME280;6583;42.632;23.298;2023-09-19T00:27:37;70150.09;;;-146.40;68.71
13033;BME280;6583;42.632;23.298;2023-09-19T00:30:07;70162.25;;;-146.40;68.89
13033;BME280;6583;42.632;23.298;2023-09-19T00:32:40;70186.50;;;-146.40;69.50
13033;BME280;6583;42.632;23.298;2023-09-19T00:35:07;70182.47;;;-146.40;70.20
13033;BME280;6583;42.632;23.298;2023-09-19T00:37:36;70170.34;;;-146.40;70.45
13033;BME280;6583;42.632;23.298;2023-09-19T00:40:06;70170.34;;;-146.40;69.24
13033;BME280;6583;42.632;23.298;2023-09-19T00:42:35;70196.63;;;-146.40;69.54
13033;BME280;6583;42.632;23.298;2023-09-19T00:45:04;70186.50;;;-146.40;70.98
13033;BME280;6583;42.632;23.298;2023-09-19T00:47:31;70174.38;;;-146.40;70.90
13033;BME280;6583;42.632;23.298;2023-09-19T00:49:58;70162.25;;;-146.40;69.96
13033;BME280;6583;42.632;23.298;2023-09-19T00:52:25;70148.09;;;-146.40;69.07
13033;BME280;6583;42.632;23.298;2023-09-19T00:54:54;70142.00;;;-146.40;68.28
13033;BME280;6583;42.632;23.298;2023-09-19T00:57:21;70158.19;;;-146.40;67.89
13033;BME280;6583;42.632;23.298;2023-09-19T00:59:50;70172.34;;;-146.40;68.72
13033;BME280;6583;42.632;23.298;2023-09-19T01:02:20;70208.78;;;-146.40;69.96
13033;BME280;6583;42.632;23.298;2023-09-19T01:04:47;70235.06;;;-146.40;71.69
13033;BME280;6583;42.632;23.298;2023-09-19T01:07:14;70231.03;;;-146.40;73.39
13033;BME280;6583;42.632;23.298;2023-09-19T01:09:42;70235.06;;;-146.40;72.92
13033;BME280;6583;42.632;23.298;2023-09-19T01:12:14;70233.03;;;-146.40;72.85
13033;BME280;6583;42.632;23.298;2023-09-19T01:14:49;70235.06;;;-146.40;71.79
13033;BME280;6583;42.632;23.298;2023-09-19T01:17:25;70237.09;;;-146.40;72.54
13033;BME280;6583;42.632;23.298;2023-09-19T01:20:19;70229.00;;;-146.40;72.98
13033;BME280;6583;42.632;23.298;2023-09-19T01:23:11;70241.13;;;-146.40;72.56
13033;BME280;6583;42.632;23.298;2023-09-19T01:25:59;70275.53;;;-146.40;73.47
13033;BME280;6583;42.632;23.298;2023-09-19T01:28:43;70283.63;;;-146.40;74.60
13033;BME280;6583;42.632;23.298;2023-09-19T01:31:14;70285.66;;;-146.40;74.58
13033;BME280;6583;42.632;23.298;2023-09-19T01:33:54;70303.84;;;-146.40;74.25
13033;BME280;6583;42.632;23.298;2023-09-19T01:36:28;70299.81;;;-146.40;74.99
13033;BME280;6583;42.632;23.298;2023-09-19T01:38:57;70299.81;;;-146.40;75.88
13033;BME280;6583;42.632;23.298;2023-09-19T01:41:37;70281.59;;;-146.40;75.69
13033;BME280;6583;42.632;23.298;2023-09-19T01:44:09;70275.53;;;-146.40;75.05
13033;BME280;6583;42.632;23.298;2023-09-19T01:46:41;70261.38;;;-146.40;75.04
13033;BME280;6583;42.632;23.298;2023-09-19T01:49:22;70263.38;;;-146.40;74.55
13033;BME280;6583;42.632;23.298;2023-09-19T01:52:02;70283.63;;;-146.40;74.55
13033;BME280;6583;42.632;23.298;2023-09-19T01:54:33;70265.41;;;-146.40;74.88
13033;BME280;6583;42.632;23.298;2023-09-19T01:57:06;70287.66;;;-146.40;74.29
13033;BME280;6583;42.632;23.298;2023-09-19T01:59:43;70320.03;;;-146.40;75.92
13033;BME280;6583;42.632;23.298;2023-09-19T02:02:13;70332.19;;;-146.40;77.34
13033;BME280;6583;42.632;23.298;2023-09-19T02:04:42;70320.03;;;-146.40;77.50
13033;BME280;6583;42.632;23.298;2023-09-19T02:07:08;70316.00;;;-146.40;76.44
13033;BME280;6583;42.632;23.298;2023-09-19T02:09:35;70311.94;;;-146.40;76.01
13033;BME280;6583;42.632;23.298;2023-09-19T02:12:05;70295.75;;;-146.40;75.74
13033;BME280;6583;42.632;23.298;2023-09-19T02:14:32;70275.53;;;-146.40;75.33
13033;BME280;6583;42.632;23.298;2023-09-19T02:17:01;70267.44;;;-146.40;73.31
13033;BME280;6583;42.632;23.298;2023-09-19T02:19:30;70279.56;;;-146.40;72.40
13033;BME280;6583;42.632;23.298;2023-09-19T02:21:59;70261.38;;;-146.40;73.30
13033;BME280;6583;42.632;23.298;2023-09-19T02:24:27;70251.25;;;-146.40;73.09
13033;BME280;6583;42.632;23.298;2023-09-19T02:26:53;70263.38;;;-146.40;71.50
13033;BME280;6583;42.632;23.298;2023-09-19T02:29:21;70253.28;;;-146.40;72.28
13033;BME280;6583;42.632;23.298;2023-09-19T02:31:47;70267.44;;;-146.40;71.03
13033;BME280;6583;42.632;23.298;2023-09-19T02:34:14;70263.38;;;-146.40;72.45
13033;BME280;6583;42.632;23.298;2023-09-19T02:36:43;70249.22;;;-146.40;72.62
13033;BME280;6583;42.632;23.298;2023-09-19T02:39:10;70243.16;;;-146.40;72.05
13033;BME280;6583;42.632;23.298;2023-09-19T02:41:38;70222.94;;;-146.40;71.57
13033;BME280;6583;42.632;23.298;2023-09-19T02:44:04;70222.94;;;-146.40;71.43
13033;BME280;6583;42.632;23.298;2023-09-19T02:46:32;70216.84;;;-146.40;70.38
13033;BME280;6583;42.632;23.298;2023-09-19T02:49:01;70210.78;;;-146.40;71.02
13033;BME280;6583;42.632;23.298;2023-09-19T02:51:30;70206.75;;;-146.40;70.31
13033;BME280;6583;42.632;23.298;2023-09-19T02:53:58;70210.78;;;-146.40;70.37
13033;BME280;6583;42.632;23.298;2023-09-19T02:56:25;70202.69;;;-146.40;70.34
13033;BME280;6583;42.632;23.298;2023-09-19T02:58:52;70218.88;;;-146.40;69.59
13033;BME280;6583;42.632;23.298;2023-09-19T03:01:20;70224.94;;;-146.40;70.87
13033;BME280;6583;42.632;23.298;2023-09-19T03:03:47;70229.00;;;-146.40;71.35
13033;BME280;6583;42.632;23.298;2023-09-19T03:06:14;70214.84;;;-146.40;71.61
13033;BME280;6583;42.632;23.298;2023-09-19T03:08:41;70206.75;;;-146.40;71.19
13033;BME280;6583;42.632;23.298;2023-09-19T03:11:10;70194.59;;;-146.40;70.51
13033;BME280;6583;42.632;23.298;2023-09-19T03:13:38;70182.47;;;-146.40;69.97
13033;BME280;6583;42.632;23.298;2023-09-19T03:16:05;70174.38;;;-146.40;69.62
13033;BME280;6583;42.632;23.298;2023-09-19T03:18:32;70180.44;;;-146.40;68.88
13033;BME280;6583;42.632;23.298;2023-09-19T03:21:00;70186.50;;;-146.40;69.21
13033;BME280;6583;42.632;23.298;2023-09-19T03:23:27;70194.59;;;-146.40;69.49
13033;BME280;6583;42.632;23.298;2023-09-19T03:25:54;70206.75;;;-146.40;70.51
13033;BME280;6583;42.632;23.298;2023-09-19T03:28:23;70229.00;;;-146.40;71.37
13033;BME280;6583;42.632;23.298;2023-09-19T03:30:58;70231.03;;;-146.40;72.40
13033;BME280;6583;42.632;23.298;2023-09-19T03:33:25;70235.06;;;-146.40;72.75
13033;BME280;6583;42.632;23.298;2023-09-19T03:35:52;70251.25;;;-146.40;72.50
13033;BME280;6583;42.632;23.298;2023-09-19T03:38:19;70269.47;;;-146.40;72.51
13033;BME280;6583;42.632;23.298;2023-09-19T03:40:47;70271.47;;;-146.40;73.65
13033;BME280;6583;42.632;23.298;2023-09-19T03:43:14;70291.72;;;-146.40;74.88
13033;BME280;6583;42.632;23.298;2023-09-19T03:45:42;70303.84;;;-146.40;75.32
13033;BME280;6583;42.632;23.298;2023-09-19T03:48:09;70318.00;;;-146.40;76.46
13033;BME280;6583;42.632;23.298;2023-09-19T03:50:36;70328.13;;;-146.40;76.45
13033;BME280;6583;42.632;23.298;2023-09-19T03:53:03;70344.31;;;-146.40;77.06
13033;BME280;6583;42.632;23.298;2023-09-19T03:55:30;70380.72;;;-146.40;78.55
13033;BME280;6583;42.632;23.298;2023-09-19T03:57:57;70380.72;;;-146.40;79.35
13033;BME280;6583;42.632;23.298;2023-09-19T04:00:24;70370.63;;;-146.40;80.36
13033;BME280;6583;42.632;23.298;2023-09-19T04:02:53;70348.38;;;-146.40;80.07
13033;BME280;6583;42.632;23.298;2023-09-19T04:05:21;70322.06;;;-146.40;78.24
13033;BME280;6583;42.632;23.298;2023-09-19T04:07:48;70305.88;;;-146.40;76.88
13033;BME280;6583;42.632;23.298;2023-09-19T04:10:15;70291.72;;;-146.40;75.58
13033;BME280;6583;42.632;23.298;2023-09-19T04:12:50;70275.53;;;-146.40;74.21
13033;BME280;6583;42.632;23.298;2023-09-19T04:15:18;70275.53;;;-146.40;73.39
13033;BME280;6583;42.632;23.298;2023-09-19T04:17:45;70283.63;;;-146.40;73.17
13033;BME280;6583;42.632;23.298;2023-09-19T04:20:13;70289.69;;;-146.40;72.84
13033;BME280;6583;42.632;23.298;2023-09-19T04:22:40;70305.88;;;-146.40;73.80
13033;BME280;6583;42.632;23.298;2023-09-19T04:25:07;70313.97;;;-146.40;75.03
13033;BME280;6583;42.632;23.298;2023-09-19T04:27:34;70303.84;;;-146.40;75.62
13033;BME280;6583;42.632;23.298;2023-09-19T04:30:01;70301.84;;;-146.40;73.83
13033;BME280;6583;42.632;23.298;2023-09-19T04:32:35;70301.84;;;-146.40;74.40
13033;BME280;6583;42.632;23.298;2023-09-19T04:35:04;70309.91;;;-146.40;75.01
13033;BME280;6583;42.632;23.298;2023-09-19T04:37:33;70316.00;;;-146.40;75.96
13033;BME280;6583;42.632;23.298;2023-09-19T04:40:00;70309.91;;;-146.40;76.06
13033;BME280;6583;42.632;23.298;2023-09-19T04:42:30;70291.72;;;-146.40;76.41
13033;BME280;6583;42.632;23.298;2023-09-19T04:44:56;70279.56;;;-146.40;75.33
13033;BME280;6583;42.632;23.298;2023-09-19T04:47:25;70279.56;;;-146.40;75.04
13033;BME280;6583;42.632;23.298;2023-09-19T04:49:51;70277.56;;;-146.40;75.15
13033;BME280;6583;42.632;23.298;2023-09-19T04:52:18;70275.53;;;-146.40;75.45
13033;BME280;6583;42.632;23.298;2023-09-19T04:54:46;70277.56;;;-146.40;75.54
13033;BME280;6583;42.632;23.298;2023-09-19T04:57:13;70261.38;;;-146.40;74.53
13033;BME280;6583;42.632;23.298;2023-09-19T04:59:40;70245.19;;;-146.40;74.51
13033;BME280;6583;42.632;23.298;2023-09-19T05:02:07;70239.13;;;-146.40;74.77
13033;BME280;6583;42.632;23.298;2023-09-19T05:04:34;70237.09;;;-146.40;75.49
13033;BME280;6583;42.632;23.298;2023-09-19T05:07:03;70226.97;;;-146.40;75.09
13033;BME280;6583;42.632;23.298;2023-09-19T05:09:29;70245.19;;;-146.40;76.16
13033;BME280;6583;42.632;23.298;2023-09-19T05:12:00;70265.41;;;-146.40;76.75
13033;BME280;6583;42.632;23.298;2023-09-19T05:14:26;70271.47;;;-146.40;77.56
13033;BME280;6583;42.632;23.298;2023-09-19T05:16:53;70263.38;;;-146.40;77.41
13033;BME280;6583;42.632;23.298;2023-09-19T05:19:20;70251.25;;;-146.40;76.04
13033;BME280;6583;42.632;23.298;2023-09-19T05:21:46;70239.13;;;-146.40;77.21
13033;BME280;6583;42.632;23.298;2023-09-19T05:24:14;70226.97;;;-146.40;76.99
13033;BME280;6583;42.632;23.298;2023-09-19T05:26:42;70206.75;;;-146.40;76.50
13033;BME280;6583;42.632;23.298;2023-09-19T05:29:10;70204.72;;;-146.40;76.75
13033;BME280;6583;42.632;23.298;2023-09-19T05:31:38;70186.50;;;-146.40;74.64
13033;BME280;6583;42.632;23.298;2023-09-19T05:34:06;70166.28;;;-146.40;74.88
13033;BME280;6583;42.632;23.298;2023-09-19T05:36:33;70154.16;;;-146.40;73.41
13033;BME280;6583;42.632;23.298;2023-09-19T05:39:00;70150.09;;;-146.40;73.19
13033;BME280;6583;42.632;23.298;2023-09-19T05:41:27;70137.97;;;-146.40;72.38
13033;BME280;6583;42.632;23.298;2023-09-19T05:43:53;70131.91;;;-146.40;72.50
13033;BME280;6583;42.632;23.298;2023-09-19T05:46:21;70142.00;;;-146.40;72.42
13033;BME280;6583;42.632;23.298;2023-09-19T05:48:48;70133.91;;;-146.40;72.94
13033;BME280;6583;42.632;23.298;2023-09-19T05:51:15;70131.91;;;-146.40;72.46
13033;BME280;6583;42.632;23.298;2023-09-19T05:53:43;70133.91;;;-146.40;72.57
13033;BME280;6583;42.632;23.298;2023-09-19T05:56:09;70127.84;;;-146.40;72.53
13033;BME280;6583;42.632;23.298;2023-09-19T05:58:36;70117.72;;;-146.40;72.34
13033;BME280;6583;42.632;23.298;2023-09-19T06:01:03;70109.63;;;-146.40;71.64
13033;BME280;6583;42.632;23.298;2023-09-19T06:03:33;70103.56;;;-146.40;70.89
13033;BME280;6583;42.632;23.298;2023-09-19T06:06:00;70093.47;;;-146.40;70.81
13033;BME280;6583;42.632;23.298;2023-09-19T06:08:27;70087.38;;;-146.40;71.24
13033;BME280;6583;42.632;23.298;2023-09-19T06:10:56;70081.31;;;-146.40;71.51
13033;BME280;6583;42.632;23.298;2023-09-19T06:13:23;70085.38;;;-146.40;71.19
13033;BME280;6583;42.632;23.298;2023-09-19T06:15:51;70140.00;;;-146.40;71.45
13033;BME280;6583;42.632;23.298;2023-09-19T06:18:19;70111.66;;;-146.40;72.37
13033;BME280;6583;42.632;23.298;2023-09-19T06:20:47;70105.59;;;-146.40;73.10
13033;BME280;6583;42.632;23.298;2023-09-19T06:23:16;70093.47;;;-146.40;70.31
13033;BME280;6583;42.632;23.298;2023-09-19T06:25:45;70095.47;;;-146.40;70.23
13033;BME280;6583;42.632;23.298;2023-09-19T06:28:11;70087.38;;;-146.40;70.25
13033;BME280;6583;42.632;23.298;2023-09-19T06:30:38;70077.28;;;-146.40;69.29
13033;BME280;6583;42.632;23.298;2023-09-19T06:33:06;70083.34;;;-146.40;70.61
13033;BME280;6583;42.632;23.298;2023-09-19T06:35:34;70077.28;;;-146.40;71.18
13033;BME280;6583;42.632;23.298;2023-09-19T06:38:04;70069.19;;;-146.40;70.95
13033;BME280;6583;42.632;23.298;2023-09-19T06:40:31;70050.97;;;-146.40;69.86
13033;BME280;6583;42.632;23.298;2023-09-19T06:42:58;70032.78;;;-146.40;70.18
13033;BME280;6583;42.632;23.298;2023-09-19T06:45:28;70034.78;;;-146.40;67.72
13033;BME280;6583;42.632;23.298;2023-09-19T06:47:54;70032.78;;;-146.40;68.77
13033;BME280;6583;42.632;23.298;2023-09-19T06:50:23;70030.75;;;-146.40;68.91
13033;BME280;6583;42.632;23.298;2023-09-19T06:52:51;70016.59;;;-146.40;67.83
13033;BME280;6583;42.632;23.298;2023-09-19T06:55:20;70002.44;;;-146.40;68.31
13033;BME280;6583;42.632;23.298;2023-09-19T06:57:50;69990.28;;;-146.40;66.73
13033;BME280;6583;42.632;23.298;2023-09-19T07:00:20;69984.22;;;-146.40;66.39
13033;BME280;6583;42.632;23.298;2023-09-19T07:02:55;69982.19;;;-146.40;66.22
13033;BME280;6583;42.632;23.298;2023-09-19T07:05:21;69974.09;;;-146.40;66.21
13033;BME280;6583;42.632;23.298;2023-09-19T07:07:48;69966.00;;;-146.40;65.59
13033;BME280;6583;42.632;23.298;2023-09-19T07:10:15;69966.00;;;-146.40;65.22
13033;BME280;6583;42.632;23.298;2023-09-19T07:12:43;69959.94;;;-146.40;64.57
13033;BME280;6583;42.632;23.298;2023-09-19T07:15:10;69964.00;;;-146.40;65.68
13033;BME280;6583;42.632;23.298;2023-09-19T07:17:36;69951.84;;;-146.40;65.73
13033;BME280;6583;42.632;23.298;2023-09-19T07:20:04;69943.75;;;-146.40;64.46
13033;BME280;6583;42.632;23.298;2023-09-19T07:22:34;69943.75;;;-146.40;64.22
13033;BME280;6583;42.632;23.298;2023-09-19T07:25:01;69945.78;;;-146.40;63.83
13033;BME280;6583;42.632;23.298;2023-09-19T07:27:28;69939.72;;;-146.40;64.03
13033;BME280;6583;42.632;23.298;2023-09-19T07:29:56;69964.00;;;-146.40;64.81
13033;BME280;6583;42.632;23.298;2023-09-19T07:32:24;69964.00;;;-146.40;65.81
13033;BME280;6583;42.632;23.298;2023-09-19T07:34:51;69955.91;;;-146.40;66.03
13033;BME280;6583;42.632;23.298;2023-09-19T07:37:17;69943.75;;;-146.40;64.63
13033;BME280;6583;42.632;23.298;2023-09-19T07:39:44;69939.72;;;-146.40;65.27
13033;BME280;6583;42.632;23.298;2023-09-19T07:42:11;69923.53;;;-146.40;63.96
13033;BME280;6583;42.632;23.298;2023-09-19T07:44:43;69931.63;;;-146.40;64.44
13033;BME280;6583;42.632;23.298;2023-09-19T07:47:14;69933.66;;;-146.40;64.68
13033;BME280;6583;42.632;23.298;2023-09-19T07:49:41;69923.53;;;-146.40;63.75
13033;BME280;6583;42.632;23.298;2023-09-19T07:52:08;69911.41;;;-146.40;64.52
13033;BME280;6583;42.632;23.298;2023-09-19T07:54:35;69915.44;;;-146.40;64.56
13033;BME280;6583;42.632;23.298;2023-09-19T07:57:04;69917.47;;;-146.40;64.04
13033;BME280;6583;42.632;23.298;2023-09-19T07:59:31;69911.41;;;-146.40;64.30
13033;BME280;6583;42.632;23.298;2023-09-19T08:01:57;69927.59;;;-146.40;63.74
13033;BME280;6583;42.632;23.298;2023-09-19T08:04:25;69907.34;;;-146.40;63.70
13033;BME280;6583;42.632;23.298;2023-09-19T08:06:52;69899.25;;;-146.40;64.48
13033;BME280;6583;42.632;23.298;2023-09-19T08:09:21;69893.19;;;-146.40;64.44
13033;BME280;6583;42.632;23.298;2023-09-19T08:11:47;69887.13;;;-146.40;62.60
13033;BME280;6583;42.632;23.298;2023-09-19T08:14:16;69872.97;;;-146.40;61.95
13033;BME280;6583;42.632;23.298;2023-09-19T08:16:42;69879.03;;;-146.40;61.43
13033;BME280;6583;42.632;23.298;2023-09-19T08:19:09;69870.94;;;-146.40;62.25
13033;BME280;6583;42.632;23.298;2023-09-19T08:21:38;69874.97;;;-146.40;62.44
13033;BME280;6583;42.632;23.298;2023-09-19T08:24:05;69864.88;;;-146.40;62.86
13033;BME280;6583;42.632;23.298;2023-09-19T08:26:31;69846.66;;;-146.40;62.74
13033;BME280;6583;42.632;23.298;2023-09-19T08:28:58;69840.59;;;-146.40;62.83
13033;BME280;6583;42.632;23.298;2023-09-19T08:31:30;69834.53;;;-146.40;62.63
13033;BME280;6583;42.632;23.298;2023-09-19T08:33:56;69826.44;;;-146.40;60.86
13033;BME280;6583;42.632;23.298;2023-09-19T08:36:23;69830.47;;;-146.40;60.64
13033;BME280;6583;42.632;23.298;2023-09-19T08:38:51;69826.44;;;-146.40;61.54
13033;BME280;6583;42.632;23.298;2023-09-19T08:41:18;69820.38;;;-146.40;59.60
13033;BME280;6583;42.632;23.298;2023-09-19T08:43:45;69816.31;;;-146.40;60.69
13033;BME280;6583;42.632;23.298;2023-09-19T08:46:15;69804.19;;;-146.40;61.52
13033;BME280;6583;42.632;23.298;2023-09-19T08:48:45;69792.06;;;-146.40;61.03
13033;BME280;6583;42.632;23.298;2023-09-19T08:51:18;69802.16;;;-146.40;60.91
13033;BME280;6583;42.632;23.298;2023-09-19T08:53:54;69785.97;;;-146.40;60.60
13033;BME280;6583;42.632;23.298;2023-09-19T08:56:26;69785.97;;;-146.40;60.35
13033;BME280;6583;42.632;23.298;2023-09-19T08:58:55;69775.88;;;-146.40;58.97
13033;BME280;6583;42.632;23.298;2023-09-19T09:01:23;69769.81;;;-146.40;60.26
13033;BME280;6583;42.632;23.298;2023-09-19T09:03:54;69761.72;;;-146.40;59.82
13033;BME280;6583;42.632;23.298;2023-09-19T09:06:23;69745.53;;;-146.40;58.47
13033;BME280;6583;42.632;23.298;2023-09-19T09:08:52;69749.56;;;-146.40;58.83
13033;BME280;6583;42.632;23.298;2023-09-19T09:11:19;69735.41;;;-146.40;57.59
13033;BME280;6583;42.632;23.298;2023-09-19T09:13:46;69725.31;;;-146.40;58.85
13033;BME280;6583;42.632;23.298;2023-09-19T09:16:14;69713.16;;;-146.40;57.84
13033;BME280;6583;42.632;23.298;2023-09-19T09:18:42;69703.06;;;-146.40;58.44
13033;BME280;6583;42.632;23.298;2023-09-19T09:21:09;69688.88;;;-146.40;57.04
13033;BME280;6583;42.632;23.298;2023-09-19T09:23:36;69680.81;;;-146.40;56.92
13033;BME280;6583;42.632;23.298;2023-09-19T09:26:05;69664.63;;;-146.40;57.36
13033;BME280;6583;42.632;23.298;2023-09-19T09:28:33;69660.56;;;-146.40;56.07
13033;BME280;6583;42.632;23.298;2023-09-19T09:31:01;69656.53;;;-146.40;55.54
13033;BME280;6583;42.632;23.298;2023-09-19T09:33:33;69660.56;;;-146.40;54.54
13033;BME280;6583;42.632;23.298;2023-09-19T09:36:02;69652.47;;;-146.40;54.66
13033;BME280;6583;42.632;23.298;2023-09-19T09:38:43;69656.53;;;-146.40;54.44
13033;BME280;6583;42.632;23.298;2023-09-19T09:41:12;69640.34;;;-146.40;55.75
13033;BME280;6583;42.632;23.298;2023-09-19T09:43:42;69626.19;;;-146.40;54.20
13033;BME280;6583;42.632;23.298;2023-09-19T09:46:13;69624.16;;;-146.40;55.15
13033;BME280;6583;42.632;23.298;2023-09-19T09:49:13;69607.97;;;-146.40;55.72
13033;BME280;6583;42.632;23.298;2023-09-19T09:51:45;69591.81;;;-146.40;55.96
13033;BME280;6583;42.632;23.298;2023-09-19T09:54:15;69577.66;;;-146.40;55.35
13033;BME280;6583;42.632;23.298;2023-09-19T09:56:57;69575.63;;;-146.40;53.85
13033;BME280;6583;42.632;23.298;2023-09-19T09:59:52;69561.47;;;-146.40;54.93
13033;BME280;6583;42.632;23.298;2023-09-19T10:02:25;69555.41;;;-146.40;54.41
13033;BME280;6583;42.632;23.298;2023-09-19T10:04:55;69543.25;;;-146.40;53.33
13033;BME280;6583;42.632;23.298;2023-09-19T10:07:40;69573.59;;;-146.40;54.09
13033;BME280;6583;42.632;23.298;2023-09-19T10:10:13;69599.91;;;-146.40;53.87
13033;BME280;6583;42.632;23.298;2023-09-19T10:12:45;69587.75;;;-146.40;55.46
13033;BME280;6583;42.632;23.298;2023-09-19T10:15:12;69593.81;;;-146.40;55.30
13033;BME280;6583;42.632;23.298;2023-09-19T10:17:42;69579.66;;;-146.40;53.96
13033;BME280;6583;42.632;23.298;2023-09-19T10:20:12;69571.56;;;-146.40;54.69
13033;BME280;6583;42.632;23.298;2023-09-19T10:22:53;69565.50;;;-146.40;53.92
13033;BME280;6583;42.632;23.298;2023-09-19T10:25:25;69567.53;;;-146.40;54.83
13033;BME280;6583;42.632;23.298;2023-09-19T10:27:56;69553.38;;;-146.40;54.75
13033;BME280;6583;42.632;23.298;2023-09-19T10:30:24;69537.19;;;-146.40;54.98
13033;BME280;6583;42.632;23.298;2023-09-19T10:33:00;69523.03;;;-146.40;54.67
13033;BME280;6583;42.632;23.298;2023-09-19T10:35:27;69516.97;;;-146.40;52.27
13033;BME280;6583;42.632;23.298;2023-09-19T10:37:54;69525.06;;;-146.40;51.83
13033;BME280;6583;42.632;23.298;2023-09-19T10:40:24;69527.06;;;-146.40;52.33
13033;BME280;6583;42.632;23.298;2023-09-19T10:43:00;69523.03;;;-146.40;52.95
13033;BME280;6583;42.632;23.298;2023-09-19T10:45:28;69514.94;;;-146.40;53.61
13033;BME280;6583;42.632;23.298;2023-09-19T10:47:57;69519.00;;;-146.40;53.33
13033;BME280;6583;42.632;23.298;2023-09-19T10:50:24;69510.91;;;-146.40;53.19
13033;BME280;6583;42.632;23.298;2023-09-19T10:52:53;69506.84;;;-146.40;53.79
13033;BME280;6583;42.632;23.298;2023-09-19T10:55:27;69498.75;;;-146.40;53.32
13033;BME280;6583;42.632;23.298;2023-09-19T10:57:55;69496.75;;;-146.40;53.33
13033;BME280;6583;42.632;23.298;2023-09-19T11:00:53;69484.59;;;-146.40;53.90
13033;BME280;6583;42.632;23.298;2023-09-19T11:03:21;69478.53;;;-146.40;52.99
13033;BME280;6583;42.632;23.298;2023-09-19T11:06:10;69486.63;;;-146.40;51.98
13033;BME280;6583;42.632;23.298;2023-09-19T11:08:52;69482.59;;;-146.40;52.60
13033;BME280;6583;42.632;23.298;2023-09-19T11:11:41;69478.53;;;-146.40;52.75
13033;BME280;6583;42.632;23.298;2023-09-19T11:20:19;69478.53;;;-146.40;52.06
13033;BME280;6583;42.632;23.298;2023-09-19T11:23:17;69470.44;;;-146.40;52.71
13033;BME280;6583;42.632;23.298;2023-09-19T11:25:48;69456.28;;;-146.40;52.83
13033;BME280;6583;42.632;23.298;2023-09-19T11:28:28;69452.25;;;-146.40;53.09
13033;BME280;6583;42.632;23.298;2023-09-19T11:30:56;69450.22;;;-146.40;52.15
13033;BME280;6583;42.632;23.298;2023-09-19T11:33:24;69440.09;;;-146.40;53.78
13033;BME280;6583;42.632;23.298;2023-09-19T11:36:02;69440.09;;;-146.40;50.79
13033;BME280;6583;42.632;23.298;2023-09-19T11:38:57;69446.19;;;-146.40;51.77
13033;BME280;6583;42.632;23.298;2023-09-19T11:41:39;69434.03;;;-146.40;51.59
13033;BME280;6583;42.632;23.298;2023-09-19T11:44:31;69440.09;;;-146.40;51.07
13033;BME280;6583;42.632;23.298;2023-09-19T11:46:59;69425.94;;;-146.40;51.96
13033;BME280;6583;42.632;23.298;2023-09-19T11:49:29;69409.78;;;-146.40;51.87
13033;BME280;6583;42.632;23.298;2023-09-19T11:51:59;69413.81;;;-146.40;50.83
13033;BME280;6583;42.632;23.298;2023-09-19T11:54:31;69413.81;;;-146.40;50.05
13033;BME280;6583;42.632;23.298;2023-09-19T11:56:59;69407.75;;;-146.40;50.92
13033;BME280;6583;42.632;23.298;2023-09-19T11:59:27;69409.78;;;-146.40;50.32
13033;BME280;6583;42.632;23.298;2023-09-19T12:01:55;69405.72;;;-146.40;50.53
13033;BME280;6583;42.632;23.298;2023-09-19T12:04:37;69401.69;;;-146.40;50.63
13033;BME280;6583;42.632;23.298;2023-09-19T12:07:07;69397.63;;;-146.40;51.24
13033;BME280;6583;42.632;23.298;2023-09-19T12:09:39;69389.53;;;-146.40;50.67
13033;BME280;6583;42.632;23.298;2023-09-19T12:12:07;69389.53;;;-146.40;50.90
13033;BME280;6583;42.632;23.298;2023-09-19T12:14:34;69385.50;;;-146.40;51.04
13033;BME280;6583;42.632;23.298;2023-09-19T12:17:01;69385.50;;;-146.40;50.07
13033;BME280;6583;42.632;23.298;2023-09-19T12:19:28;69389.53;;;-146.40;50.33
13033;BME280;6583;42.632;23.298;2023-09-19T12:21:56;69397.63;;;-146.40;49.51
13033;BME280;6583;42.632;23.298;2023-09-19T12:24:26;69395.59;;;-146.40;49.38
13033;BME280;6583;42.632;23.298;2023-09-19T12:27:00;69377.41;;;-146.40;49.86
13033;BME280;6583;42.632;23.298;2023-09-19T12:29:27;69369.31;;;-146.40;49.73
13033;BME280;6583;42.632;23.298;2023-09-19T12:31:57;69373.38;;;-146.40;50.50
13033;BME280;6583;42.632;23.298;2023-09-19T12:34:26;69371.34;;;-146.40;49.55
13033;BME280;6583;42.632;23.298;2023-09-19T12:37:07;69371.34;;;-146.40;50.14
13033;BME280;6583;42.632;23.298;2023-09-19T12:39:39;69361.22;;;-146.40;49.74
13033;BME280;6583;42.632;23.298;2023-09-19T12:42:08;69369.31;;;-146.40;50.35
13033;BME280;6583;42.632;23.298;2023-09-19T12:44:37;69357.19;;;-146.40;51.05
13033;BME280;6583;42.632;23.298;2023-09-19T12:47:15;69355.16;;;-146.40;50.15
13033;BME280;6583;42.632;23.298;2023-09-19T12:50:05;69357.19;;;-146.40;50.60
13033;BME280;6583;42.632;23.298;2023-09-19T12:52:36;69355.16;;;-146.40;49.84
13033;BME280;6583;42.632;23.298;2023-09-19T12:55:05;69349.09;;;-146.40;51.27
13033;BME280;6583;42.632;23.298;2023-09-19T12:57:32;69357.19;;;-146.40;50.48
13033;BME280;6583;42.632;23.298;2023-09-19T13:00:00;69349.09;;;-146.40;50.14